DP547 / VP-BQQ 7700 Squawk Report (15th of June, 2020)

Aircraft B738 Reg No. VP-BQQ Age 1 years old
Model 737 Jet engines 2 First flight 24-03-19
Registered 29-03-19 Rollout N/A Delivered 29-03-19
Construction No. 64869 Line No. 7482 Series 800
ADSHEX 424392 Airline name Podeba Owner N/A
Airfield based Moscow-Vnukovo~Moscow~RA First tracked N/A

Flight history for VP-BQQ

Route Flight No Date Playback
Roschino (TJM) - Sochi (AER) DP322 2020-08-09 02:00:00
Vnukovo (VKO) - Roschino (TJM) DP449 2020-08-08 23:37:00
Astrakhan (ASF) - Vnukovo (VKO) DP166 2020-08-08 21:12:00
Vnukovo (VKO) - Astrakhan (ASF) DP165 2020-08-08 17:15:00
???? N/A 2020-08-08 13:35:00
Kazan (KZN) - Sochi (AER) DP338 2020-08-08 11:43:00
Sochi (AER) - Kazan (KZN) DP337 2020-08-08 08:21:00
Balandino (CEK) - Sochi (AER) DP324 2020-08-08 05:20:00
Vnukovo (VKO) - Balandino (CEK) DP413 2020-08-07 22:55:00
Pulkovo (LED) - Vnukovo (VKO) DP210 2020-08-07 21:03:00
Koltsovo (SVX) - Pulkovo (LED) DP582 2020-08-07 16:18:00
Pulkovo (LED) - Koltsovo (SVX) DP581 2020-08-07 12:37:00
Vnukovo (VKO) - Pulkovo (LED) DP209 2020-08-07 10:33:00
Uytash (MCX) - Vnukovo (VKO) DP188 2020-08-07 08:11:00
Surgut (SGC) - Uytash (MCX) DP502 2020-08-07 05:00:00
Uytash (MCX) - Surgut (SGC) DP501 2020-08-07 00:00:00
Vnukovo (VKO) - Uytash (MCX) DP187 2020-08-06 17:16:00
Magas (IGT) - Vnukovo (VKO) DP174 2020-08-06 15:27:00
Vnukovo (VKO) - Magas (IGT) DP173 2020-08-06 09:35:00
Irkutsk (IKT) - Vnukovo (VKO) DP454 2020-08-06 07:55:00
Time Lat Lon Altitude Heading Speed Vertical Rate
2020-06-15 16:26:09 GMT 55.736202 48.345249 6,525 97 274 -1280
2020-06-15 16:25:51 GMT 55.739693 48.302250 6,950 98 279 -1344
2020-06-15 16:25:40 GMT 55.741554 48.280022 7,175 98 281 -1344
2020-06-15 16:25:30 GMT 55.743530 48.256283 7,400 98 284 -1536
2020-06-15 16:25:20 GMT 55.745407 48.232979 7,650 98 285 -1472
2020-06-15 16:25:09 GMT 55.747284 48.209091 7,925 98 287 -1536
2020-06-15 16:24:59 GMT 55.749237 48.184750 8,175 97 289 -1536
2020-06-15 16:24:49 GMT 55.751083 48.160732 8,425 97 291 -1472
2020-06-15 16:24:38 GMT 55.753052 48.135849 8,700 98 294 -1536
2020-06-15 16:24:28 GMT 55.754929 48.112461 8,925 98 295 -1536
2020-06-15 16:24:19 GMT 55.756943 48.087242 9,200 98 297 -1536
2020-06-15 16:24:08 GMT 55.758968 48.062096 9,475 98 299 -1536
2020-06-15 16:23:57 GMT 55.760876 48.037460 9,725 97 301 -1536
2020-06-15 16:23:47 GMT 55.762802 48.012417 9,975 97 304 -1536
2020-06-15 16:23:38 GMT 55.764786 47.987164 10,250 97 306 -1536
2020-06-15 16:23:27 GMT 55.766830 47.961147 10,525 97 309 -1536
2020-06-15 16:23:16 GMT 55.768791 47.935665 10,775 97 312 -1536
2020-06-15 16:23:06 GMT 55.770840 47.909489 11,050 98 316 -1536
2020-06-15 16:22:57 GMT 55.772873 47.883743 11,300 97 319 -1536
2020-06-15 16:22:46 GMT 55.774933 47.856945 11,575 97 321 -1856
2020-06-15 16:22:35 GMT 55.777130 47.829063 11,925 97 321 -1984
2020-06-15 16:22:25 GMT 55.779099 47.802345 12,275 97 322 -1984
2020-06-15 16:22:16 GMT 55.781067 47.776295 12,600 97 323 -1984
2020-06-15 16:22:05 GMT 55.783035 47.749928 12,925 97 325 -1984
2020-06-15 16:21:54 GMT 55.785221 47.721603 13,275 97 326 -1984
2020-06-15 16:21:44 GMT 55.787178 47.694824 13,600 97 327 -1984
2020-06-15 16:21:35 GMT 55.789124 47.668095 13,950 97 328 -2048
2020-06-15 16:21:24 GMT 55.791180 47.640324 14,300 97 329 -1984
2020-06-15 16:21:14 GMT 55.793198 47.612999 14,625 97 330 -1920
2020-06-15 16:21:03 GMT 55.795258 47.585281 14,950 97 331 -1920
2020-06-15 16:20:54 GMT 55.797279 47.557156 15,300 97 332 -1984
2020-06-15 16:20:43 GMT 55.799377 47.529018 15,650 97 334 -1920
2020-06-15 16:20:33 GMT 55.801483 47.501637 15,975 97 334 -1984
2020-06-15 16:20:23 GMT 55.803497 47.474670 16,300 97 335 -1984
2020-06-15 16:20:13 GMT 55.805660 47.445744 16,650 97 335 -1984
2020-06-15 16:20:02 GMT 55.807663 47.417908 17,000 99 337 -2048
2020-06-15 16:19:52 GMT 55.810684 47.389942 17,350 103 337 -2048
2020-06-15 16:19:41 GMT 55.814968 47.362831 17,700 109 336 -2112
2020-06-15 16:19:32 GMT 55.820480 47.337257 18,050 112 336 -1984
2020-06-15 16:19:21 GMT 55.826843 47.310539 18,375 112 336 -1728
2020-06-15 16:19:11 GMT 55.832985 47.284554 18,650 112 337 -1600
2020-06-15 16:19:00 GMT 55.839222 47.258289 18,925 112 339 -1600
2020-06-15 16:18:50 GMT 55.845413 47.231770 19,200 112 341 -1600
2020-06-15 16:18:41 GMT 55.851372 47.206192 19,475 112 341 -1664
2020-06-15 16:18:30 GMT 55.857651 47.178623 19,775 111 342 -1728
2020-06-15 16:18:19 GMT 55.863785 47.151657 20,075 112 344 -1664
2020-06-15 16:18:09 GMT 55.869690 47.125771 20,325 112 345 -1344
2020-06-15 16:18:00 GMT 55.876045 47.098129 20,575 112 349 -1664
2020-06-15 16:17:49 GMT 55.882236 47.071266 20,850 112 352 -1664
2020-06-15 16:17:39 GMT 55.888550 47.043873 21,150 112 356 -1728
2020-06-15 16:17:28 GMT 55.895130 47.015045 21,450 112 359 -1728
2020-06-15 16:17:19 GMT 55.901508 46.987324 21,750 112 363 -1728
2020-06-15 16:17:08 GMT 55.907982 46.959343 22,050 112 367 -1728
2020-06-15 16:16:57 GMT 55.914825 46.929989 22,350 112 372 -1728
2020-06-15 16:16:47 GMT 55.921509 46.901718 22,625 112 376 -1728
2020-06-15 16:16:38 GMT 55.928417 46.872482 22,925 112 380 -1920
2020-06-15 16:16:27 GMT 55.935307 46.842957 23,275 112 383 -2176
2020-06-15 16:16:17 GMT 55.942291 46.812492 23,600 112 386 -1792
2020-06-15 16:16:07 GMT 55.948948 46.782963 23,900 112 388 -1792
2020-06-15 16:15:57 GMT 55.956161 46.751488 24,225 112 391 -1856
2020-06-15 16:15:46 GMT 55.962982 46.721691 24,550 112 392 -1856
2020-06-15 16:15:36 GMT 55.969990 46.691120 24,850 112 394 -1920
2020-06-15 16:15:25 GMT 55.977062 46.660137 25,200 112 395 -1856
2020-06-15 16:15:16 GMT 55.984234 46.629066 25,500 112 396 -1856
2020-06-15 16:15:05 GMT 55.991089 46.598759 25,825 111 397 -1856
2020-06-15 16:14:55 GMT 55.998322 46.566799 26,150 112 399 -1856
2020-06-15 16:14:44 GMT 56.005463 46.535423 26,450 112 400 -1856
2020-06-15 16:14:35 GMT 56.012466 46.504543 26,775 112 401 -1856
2020-06-15 16:14:24 GMT 56.019707 46.472595 27,100 112 403 -1792
2020-06-15 16:14:14 GMT 56.026840 46.441124 27,400 112 404 -1856
2020-06-15 16:14:03 GMT 56.034138 46.408997 27,725 112 405 -1856
2020-06-15 16:13:54 GMT 56.041077 46.378368 28,025 111 407 -1856
2020-06-15 16:13:43 GMT 56.048382 46.345909 28,350 111 408 -1856
2020-06-15 16:13:33 GMT 56.055405 46.314697 28,650 111 409 -1856
2020-06-15 16:13:25 GMT 56.061745 46.286430 28,950 111 411 -1856
2020-06-15 16:13:22 GMT 56.062820 46.281738 29,000 111 411 -1856
2020-06-15 16:13:12 GMT 56.069916 46.249863 29,300 111 412 -1856
2020-06-15 16:13:02 GMT 56.077431 46.216309 29,625 111 414 -1856
2020-06-15 16:12:52 GMT 56.084656 46.183945 29,950 111 415 -1856
2020-06-15 16:12:41 GMT 56.092190 46.150131 30,275 111 416 -1856
2020-06-15 16:12:32 GMT 56.098938 46.119747 30,575 111 418 -1920
2020-06-15 16:12:21 GMT 56.106949 46.083817 30,925 111 419 -1856
2020-06-15 16:12:11 GMT 56.113678 46.053440 31,200 111 421 -1856
2020-06-15 16:12:00 GMT 56.121094 46.020145 31,525 111 423 -1856
2020-06-15 16:11:50 GMT 56.128510 45.986607 31,850 111 425 -1856
2020-06-15 16:11:41 GMT 56.135742 45.953979 32,150 111 425 -1856
2020-06-15 16:11:29 GMT 56.143677 45.918217 32,500 111 428 -1920
2020-06-15 16:11:08 GMT 56.159271 45.847576 33,175 111 432 -1856
2020-06-15 16:11:00 GMT 56.165508 45.818996 33,450 111 432 -1856
2020-06-15 16:10:49 GMT 56.173096 45.784275 33,775 111 435 -1856
2020-06-15 16:10:38 GMT 56.181057 45.748100 34,100 111 437 -1920
2020-06-15 16:10:17 GMT 56.197540 45.672329 34,800 111 441 -1792
2020-06-15 16:10:00 GMT 56.209076 45.619396 35,300 111 444 -1920
2020-06-15 16:09:57 GMT 56.211319 45.609158 35,400 111 452 -960
2020-06-15 16:09:23 GMT 56.236908 45.491138 36,200 111 453 -960
2020-06-15 16:09:13 GMT 56.244785 45.454559 36,425 111 455 -1024
2020-06-15 16:09:03 GMT 56.252468 45.419025 36,600 111 455 -1024
2020-06-15 16:08:55 GMT 56.258469 45.391262 36,725 111 455 -1088
2020-06-15 16:08:46 GMT 56.265427 45.359219 36,925 111 456 -1024
2020-06-15 16:08:40 GMT 56.269367 45.340919 36,950 111 456 -704
2020-06-15 16:08:27 GMT 56.279800 45.292553 37,000 111 456 -64
2020-06-15 16:08:16 GMT 56.288033 45.254314 37,000 111 456 0
2020-06-15 16:08:10 GMT 56.292526 45.233543 37,000 111 456 0
2020-06-15 16:07:33 GMT 56.320248 45.103600 37,000 110 457 0
2020-06-15 16:07:27 GMT 56.325645 45.078018 37,000 110 457 0
2020-06-15 16:07:24 GMT 56.327087 45.071327 37,000 110 457 0
2020-06-15 16:07:19 GMT 56.330978 45.052853 37,000 110 456 0
2020-06-15 16:07:13 GMT 56.335373 45.031960 37,000 110 457 0
2020-06-15 16:07:09 GMT 56.338589 45.016651 37,000 110 457 0
2020-06-15 16:07:02 GMT 56.346039 44.981190 37,000 110 457 0
2020-06-15 16:06:59 GMT 56.346039 44.981190 37,000 110 457 0
2020-06-15 16:06:49 GMT 56.353626 44.944897 37,000 110 457 0
2020-06-15 16:06:38 GMT 56.361214 44.908676 37,000 110 457 0
2020-06-15 16:06:16 GMT 56.377460 44.830399 37,000 110 457 0
2020-06-15 16:06:10 GMT 56.382385 44.806576 37,000 110 457 0
2020-06-15 16:06:03 GMT 56.388168 44.778385 37,000 110 457 0
2020-06-15 16:05:36 GMT 56.408295 44.681980 37,000 110 456 0
2020-06-15 16:05:26 GMT 56.414749 44.651443 37,000 110 456 0
2020-06-15 16:05:16 GMT 56.422569 44.614189 37,000 110 455 64
2020-06-15 16:05:07 GMT 56.429272 44.582260 37,000 110 455 0
2020-06-15 16:04:56 GMT 56.436722 44.546387 37,000 110 455 0
2020-06-15 16:04:47 GMT 56.444263 44.509823 37,000 110 455 0
2020-06-15 16:04:36 GMT 56.451805 44.473171 37,000 110 455 0
2020-06-15 16:04:26 GMT 56.459297 44.436523 37,000 110 456 0
2020-06-15 16:04:19 GMT 56.463913 44.414062 37,000 110 456 0
2020-06-15 16:04:15 GMT 56.466934 44.399498 37,000 110 456 0
2020-06-15 16:04:09 GMT 56.471329 44.378105 37,000 110 456 0
2020-06-15 16:04:05 GMT 56.474243 44.363823 37,000 110 456 0
2020-06-15 16:03:56 GMT 56.481628 44.327419 37,000 110 457 0
2020-06-15 16:03:45 GMT 56.488815 44.292049 37,000 110 456 0
2020-06-15 16:03:35 GMT 56.496353 44.254906 37,000 110 456 0
2020-06-15 16:03:24 GMT 56.504471 44.214725 37,000 110 457 64
2020-06-15 16:03:14 GMT 56.511475 44.180271 37,000 110 458 0
2020-06-15 16:03:09 GMT 56.515720 44.159119 37,000 110 459 0
2020-06-15 16:03:05 GMT 56.518421 44.145813 37,000 110 459 0
2020-06-15 16:02:54 GMT 56.526054 44.108047 37,000 109 459 0
2020-06-15 16:02:44 GMT 56.533447 44.071323 37,000 110 459 0
2020-06-15 16:02:34 GMT 56.540718 44.035263 37,000 109 462 0
2020-06-15 16:02:23 GMT 56.548351 43.997669 37,000 110 460 0
2020-06-15 16:02:14 GMT 56.555847 43.960419 37,000 110 461 0
2020-06-15 16:02:06 GMT 56.561234 43.933578 37,000 109 462 0
2020-06-15 16:02:03 GMT 56.562923 43.925228 37,000 109 462 0
2020-06-15 16:01:53 GMT 56.570419 43.887806 37,000 109 462 -64
2020-06-15 16:01:42 GMT 56.578239 43.848579 37,000 109 463 0
2020-06-15 16:01:32 GMT 56.585495 43.812477 37,000 109 463 64
2020-06-15 16:01:22 GMT 56.593369 43.773048 37,000 109 464 0
2020-06-15 16:01:15 GMT 56.597698 43.751102 37,000 109 465 0
2020-06-15 16:01:12 GMT 56.600258 43.738342 37,000 109 465 0
2020-06-15 16:01:01 GMT 56.608109 43.698807 37,000 109 465 0
2020-06-15 16:00:52 GMT 56.615108 43.663654 37,000 109 466 0
2020-06-15 16:00:41 GMT 56.622574 43.626194 37,000 109 466 -64
2020-06-15 16:00:32 GMT 56.629913 43.589497 37,000 109 467 0
2020-06-15 16:00:21 GMT 56.637497 43.551178 37,000 109 467 0
2020-06-15 16:00:11 GMT 56.644684 43.514702 37,000 109 468 0
2020-06-15 16:00:01 GMT 56.652100 43.476677 37,000 109 468 0
2020-06-15 15:59:50 GMT 56.660065 43.435650 37,000 109 468 0
2020-06-15 15:59:41 GMT 56.666748 43.401146 37,000 109 469 0
2020-06-15 15:59:30 GMT 56.674072 43.362610 37,000 108 468 0
2020-06-15 15:59:20 GMT 56.681259 43.324230 37,000 108 469 0
2020-06-15 15:59:09 GMT 56.688583 43.285618 37,000 109 469 0
2020-06-15 15:58:59 GMT 56.695690 43.248833 37,000 109 469 0
2020-06-15 15:58:50 GMT 56.703140 43.210560 37,000 109 470 0
2020-06-15 15:58:39 GMT 56.710190 43.174126 37,000 109 470 0
2020-06-15 15:58:28 GMT 56.718178 43.133209 37,000 109 470 0
2020-06-15 15:58:19 GMT 56.725204 43.097061 37,000 109 470 0
2020-06-15 15:58:08 GMT 56.733582 43.053787 37,000 109 471 0
2020-06-15 15:57:59 GMT 56.739944 43.020573 37,000 109 471 0
2020-06-15 15:57:48 GMT 56.747177 42.982807 37,000 109 472 0
2020-06-15 15:57:40 GMT 56.752529 42.954769 37,000 109 472 0
2020-06-15 15:57:37 GMT 56.755184 42.940948 37,000 109 472 0
2020-06-15 15:57:28 GMT 56.761658 42.907284 37,000 109 472 0
2020-06-15 15:57:17 GMT 56.769150 42.868397 37,000 109 472 0
2020-06-15 15:57:08 GMT 56.776703 42.829082 37,000 109 472 64
2020-06-15 15:56:57 GMT 56.783768 42.792370 37,000 109 472 0
2020-06-15 15:56:50 GMT 56.789017 42.764969 37,000 109 472 0
2020-06-15 15:56:47 GMT 56.791031 42.754536 37,000 109 473 0
2020-06-15 15:56:37 GMT 56.798477 42.715908 37,000 109 472 0
2020-06-15 15:56:29 GMT 56.804626 42.684032 37,000 109 473 0
2020-06-15 15:56:26 GMT 56.806274 42.675362 37,000 109 473 0
2020-06-15 15:56:17 GMT 56.813141 42.639622 37,000 109 474 0
2020-06-15 15:56:06 GMT 56.820694 42.600430 37,000 109 475 0
2020-06-15 15:55:56 GMT 56.828156 42.561638 37,000 109 475 0
2020-06-15 15:55:49 GMT 56.833439 42.534012 37,000 109 475 0
2020-06-15 15:55:45 GMT 56.835617 42.522671 37,000 109 475 0
2020-06-15 15:55:34 GMT 56.847546 42.460739 37,000 109 475 0
2020-06-15 15:55:24 GMT 56.851223 42.441425 37,000 109 476 0
2020-06-15 15:55:19 GMT 56.854935 42.422161 37,000 109 476 0
2020-06-15 15:55:15 GMT 56.857693 42.407757 37,000 109 476 0
2020-06-15 15:55:08 GMT 56.862488 42.382420 37,000 109 476 0
2020-06-15 15:55:05 GMT 56.865005 42.369118 37,000 109 476 0
2020-06-15 15:54:59 GMT 56.869843 42.343788 37,000 109 476 0
2020-06-15 15:54:54 GMT 56.872421 42.330151 37,000 109 476 0
2020-06-15 15:54:47 GMT 56.877663 42.302502 37,000 108 475 64
2020-06-15 15:54:43 GMT 56.881577 42.281654 37,000 108 475 0
2020-06-15 15:54:35 GMT 56.886742 42.254040 37,000 108 475 0
2020-06-15 15:54:27 GMT 56.892700 42.222141 37,000 108 475 64
2020-06-15 15:54:23 GMT 56.895081 42.209301 37,000 108 475 0
2020-06-15 15:54:17 GMT 56.899429 42.185783 37,000 108 475 0
2020-06-15 15:54:14 GMT 56.901218 42.176334 37,000 108 475 0
2020-06-15 15:54:07 GMT 56.906342 42.148621 37,000 108 475 0
2020-06-15 15:54:03 GMT 56.913895 42.108109 37,000 108 475 0
2020-06-15 15:53:57 GMT 56.913895 42.108109 37,000 108 474 0
2020-06-15 15:53:53 GMT 56.915695 42.098190 37,000 108 474 0
2020-06-15 15:53:44 GMT 56.922771 42.060360 37,000 108 474 0
2020-06-15 15:53:35 GMT 56.928452 42.029705 37,000 108 474 0
2020-06-15 15:53:31 GMT 56.931339 42.014111 37,000 108 474 0
2020-06-15 15:53:26 GMT 56.935669 41.990631 37,000 108 473 0
2020-06-15 15:53:23 GMT 56.937012 41.983479 37,000 108 473 0
2020-06-15 15:53:14 GMT 56.943375 41.948978 37,000 108 473 0
2020-06-15 15:53:11 GMT 56.946281 41.933041 37,000 108 473 0
2020-06-15 15:53:02 GMT 56.951309 41.905842 37,000 108 473 0
2020-06-15 15:52:54 GMT 56.957222 41.873592 37,000 108 473 0
2020-06-15 15:52:51 GMT 56.959038 41.863758 37,000 108 473 0
2020-06-15 15:52:44 GMT 56.964390 41.834610 37,000 108 473 0
2020-06-15 15:52:41 GMT 56.965988 41.825893 37,000 108 473 0
2020-06-15 15:52:31 GMT 56.973404 41.785381 37,000 108 472 0
2020-06-15 15:52:22 GMT 56.980087 41.748650 37,000 108 472 0
2020-06-15 15:52:10 GMT 56.987778 41.706676 37,000 108 472 0
2020-06-15 15:52:01 GMT 56.994186 41.671486 37,000 108 471 64
2020-06-15 15:51:51 GMT 57.001167 41.632957 37,000 108 471 0
2020-06-15 15:51:40 GMT 57.009247 41.588402 37,000 108 470 0
2020-06-15 15:51:30 GMT 57.015553 41.553661 37,000 108 470 0
2020-06-15 15:51:20 GMT 57.022018 41.517761 37,000 108 469 0
2020-06-15 15:51:07 GMT 57.030991 41.467896 37,000 108 469 64
2020-06-15 15:51:00 GMT 57.035664 41.441849 37,000 108 469 0
2020-06-15 15:50:56 GMT 57.038456 41.426430 37,000 108 469 0
2020-06-15 15:50:50 GMT 57.042847 41.401894 37,000 108 469 0
2020-06-15 15:50:38 GMT 57.050282 41.360336 37,000 108 469 0
2020-06-15 15:50:28 GMT 57.056934 41.322948 37,000 108 468 0
2020-06-15 15:50:18 GMT 57.063686 41.284847 37,000 108 469 0
2020-06-15 15:50:09 GMT 57.070576 41.246307 37,000 108 468 0
2020-06-15 15:49:57 GMT 57.077499 41.206970 37,000 107 469 0
2020-06-15 15:49:48 GMT 57.084171 41.169228 37,000 107 469 0
2020-06-15 15:49:37 GMT 57.091049 41.129807 37,000 107 469 0
2020-06-15 15:49:27 GMT 57.097672 41.091969 37,000 107 469 0
2020-06-15 15:49:17 GMT 57.105072 41.049618 37,000 107 469 0
2020-06-15 15:49:09 GMT 57.111877 41.010590 37,000 107 469 64
2020-06-15 15:48:58 GMT 57.120071 40.963554 37,000 107 469 0
2020-06-15 15:48:48 GMT 57.123692 40.942768 37,000 107 470 0
2020-06-15 15:48:44 GMT 57.126205 40.928280 37,000 107 470 0
2020-06-15 15:48:38 GMT 57.130737 40.902443 37,000 107 470 -64
2020-06-15 15:48:34 GMT 57.132568 40.891800 37,000 107 470 0
2020-06-15 15:48:27 GMT 57.137470 40.863293 37,000 107 470 0
2020-06-15 15:48:24 GMT 57.139481 40.851891 37,000 107 470 0
2020-06-15 15:48:16 GMT 57.144547 40.822624 37,000 107 470 0
2020-06-15 15:48:13 GMT 57.146667 40.810516 37,000 107 470 0
2020-06-15 15:48:06 GMT 57.151199 40.784595 37,000 107 471 0
2020-06-15 15:48:03 GMT 57.153160 40.773186 37,000 107 471 0
2020-06-15 15:47:54 GMT 57.160080 40.733616 37,000 107 471 0
2020-06-15 15:47:47 GMT 57.164520 40.708069 37,000 107 471 0
2020-06-15 15:47:43 GMT 57.166847 40.694687 37,000 107 471 0
2020-06-15 15:47:36 GMT 57.171249 40.669498 37,000 107 472 0
2020-06-15 15:47:32 GMT 57.173737 40.655437 37,000 107 472 0
2020-06-15 15:47:26 GMT 57.178207 40.629845 37,000 107 472 0
2020-06-15 15:47:23 GMT 57.181370 40.611492 37,000 107 472 0
2020-06-15 15:47:15 GMT 57.185143 40.590141 37,000 107 472 0
2020-06-15 15:47:11 GMT 57.187840 40.574459 37,000 107 473 64
2020-06-15 15:47:06 GMT 57.191936 40.551159 37,000 107 473 0
2020-06-15 15:47:01 GMT 57.195007 40.533886 37,000 108 473 0
2020-06-15 15:46:55 GMT 57.198643 40.513237 37,000 107 474 0
2020-06-15 15:46:45 GMT 57.205624 40.473808 37,000 108 474 0
2020-06-15 15:46:34 GMT 57.213120 40.431282 37,000 107 474 0
2020-06-15 15:46:24 GMT 57.219818 40.392952 37,000 107 474 0
2020-06-15 15:46:14 GMT 57.226318 40.355701 37,000 107 474 0
2020-06-15 15:46:03 GMT 57.233368 40.315361 37,000 107 474 0
2020-06-15 15:45:54 GMT 57.240143 40.276482 37,000 107 475 0
2020-06-15 15:45:49 GMT 57.243530 40.256908 37,000 107 475 0
2020-06-15 15:45:43 GMT 57.247242 40.235744 37,000 107 475 0
2020-06-15 15:45:38 GMT 57.250626 40.216484 37,000 107 475 0
2020-06-15 15:45:32 GMT 57.254177 40.196053 37,000 107 475 0
2020-06-15 15:45:28 GMT 57.257576 40.176380 37,000 107 475 0
2020-06-15 15:45:23 GMT 57.260834 40.157951 37,000 107 475 0
2020-06-15 15:45:18 GMT 57.264404 40.137093 37,000 107 475 64
2020-06-15 15:45:13 GMT 57.267677 40.118259 37,000 107 475 64
2020-06-15 15:45:07 GMT 57.271263 40.097794 37,000 107 475 0
2020-06-15 15:45:02 GMT 57.274521 40.078835 37,000 107 475 0
2020-06-15 15:44:57 GMT 57.278152 40.058014 37,000 107 476 0
2020-06-15 15:44:52 GMT 57.281506 40.038696 37,000 107 476 0
2020-06-15 15:44:47 GMT 57.285320 40.016727 37,000 107 476 0
2020-06-15 15:44:41 GMT 57.288437 39.998562 37,000 107 476 0
2020-06-15 15:44:36 GMT 57.293190 39.971096 37,000 107 475 0
2020-06-15 15:44:32 GMT 57.295258 39.959164 37,000 107 475 0
2020-06-15 15:44:23 GMT 57.301617 39.922897 37,000 108 475 0
2020-06-15 15:44:20 GMT 57.302872 39.915546 37,000 108 475 -64
2020-06-15 15:44:11 GMT 57.309448 39.880283 37,000 111 475 64
2020-06-15 15:44:03 GMT 57.315765 39.852283 37,000 113 475 0
2020-06-15 15:44:00 GMT 57.318142 39.842186 37,000 113 475 0
2020-06-15 15:43:54 GMT 57.324753 39.813923 37,000 113 475 -64
2020-06-15 15:43:51 GMT 57.326935 39.804668 37,000 113 475 0
2020-06-15 15:43:40 GMT 57.336018 39.765987 37,000 113 475 0
2020-06-15 15:43:33 GMT 57.342720 39.737373 37,000 113 474 0
2020-06-15 15:43:29 GMT 57.345154 39.726906 37,000 113 474 0
2020-06-15 15:43:22 GMT 57.351929 39.697895 37,000 113 475 0
2020-06-15 15:43:19 GMT 57.353714 39.690083 37,000 113 475 0
2020-06-15 15:43:12 GMT 57.361176 39.658070 37,000 113 475 0
2020-06-15 15:43:09 GMT 57.362553 39.652138 37,000 113 475 0
2020-06-15 15:42:58 GMT 57.372253 39.610348 37,000 113 475 0
2020-06-15 15:42:49 GMT 57.380447 39.574986 37,000 113 475 0
2020-06-15 15:42:39 GMT 57.389557 39.535847 37,000 113 474 0
2020-06-15 15:42:28 GMT 57.398254 39.498253 37,000 113 474 0
2020-06-15 15:42:15 GMT 57.409245 39.450932 37,000 113 474 0
2020-06-15 15:42:06 GMT 57.418076 39.412506 37,000 113 474 0
2020-06-15 15:41:58 GMT 57.424931 39.382710 37,000 112 473 0
2020-06-15 15:41:47 GMT 57.433273 39.346161 37,000 112 473 0
2020-06-15 15:41:37 GMT 57.442108 39.307400 37,000 112 473 0
2020-06-15 15:41:27 GMT 57.450863 39.269035 37,000 112 472 0
2020-06-15 15:41:17 GMT 57.459503 39.231064 37,000 112 472 0
2020-06-15 15:41:06 GMT 57.468384 39.192009 37,000 112 471 0
2020-06-15 15:40:55 GMT 57.477402 39.152184 37,000 112 471 0
2020-06-15 15:40:45 GMT 57.485733 39.115276 37,000 112 471 0
2020-06-15 15:40:36 GMT 57.494343 39.077305 37,000 112 471 0
2020-06-15 15:40:25 GMT 57.502766 39.040005 37,000 112 471 0
2020-06-15 15:40:14 GMT 57.511799 39.000137 37,000 112 471 0
2020-06-15 15:40:04 GMT 57.520523 38.961384 37,000 112 471 0
2020-06-15 15:39:54 GMT 57.529404 38.921902 37,000 112 471 -64
2020-06-15 15:39:43 GMT 57.537689 38.884907 37,000 112 471 0
2020-06-15 15:39:33 GMT 57.545967 38.848011 37,000 112 471 0
2020-06-15 15:39:26 GMT 57.552612 38.818130 37,000 112 470 0
2020-06-15 15:39:23 GMT 57.554951 38.807697 37,000 112 470 0
2020-06-15 15:39:14 GMT 57.562912 38.771816 37,000 112 471 0
2020-06-15 15:39:07 GMT 57.568546 38.746387 37,000 112 471 0
2020-06-15 15:39:03 GMT 57.571526 38.733009 37,000 112 471 0
2020-06-15 15:38:56 GMT 57.577148 38.707581 37,000 112 470 0
2020-06-15 15:38:52 GMT 57.580170 38.694103 37,000 112 470 0
2020-06-15 15:38:42 GMT 57.588425 38.656723 37,000 112 470 0
2020-06-15 15:38:32 GMT 57.596802 38.618980 37,000 112 470 0
2020-06-15 15:38:22 GMT 57.605324 38.580528 37,000 112 470 0
2020-06-15 15:38:11 GMT 57.614307 38.539684 37,000 112 470 0
2020-06-15 15:38:01 GMT 57.622501 38.502739 37,000 112 471 0
2020-06-15 15:37:51 GMT 57.630569 38.465965 37,000 112 471 0
2020-06-15 15:37:41 GMT 57.639221 38.426659 37,000 112 470 0
2020-06-15 15:37:30 GMT 57.647778 38.387650 37,000 112 470 0
2020-06-15 15:37:21 GMT 57.656479 38.347862 37,000 112 471 0
2020-06-15 15:37:10 GMT 57.664719 38.309929 37,000 112 471 0
2020-06-15 15:37:00 GMT 57.672729 38.273090 37,000 112 471 0
2020-06-15 15:36:49 GMT 57.681343 38.233574 37,000 112 471 0
2020-06-15 15:36:40 GMT 57.689396 38.196362 37,000 111 472 0
2020-06-15 15:36:29 GMT 57.697998 38.156376 37,000 111 472 0
2020-06-15 15:36:19 GMT 57.706375 38.117580 37,000 111 472 0
2020-06-15 15:36:08 GMT 57.714661 38.079041 37,000 111 472 0
2020-06-15 15:35:59 GMT 57.722946 38.040504 37,000 111 473 0
2020-06-15 15:35:47 GMT 57.731644 38.000027 37,000 111 472 0
2020-06-15 15:35:37 GMT 57.740479 37.958736 37,000 111 472 0
2020-06-15 15:35:27 GMT 57.747959 37.923889 37,000 111 472 0
2020-06-15 15:35:18 GMT 57.756756 37.883057 37,000 111 474 0
2020-06-15 15:35:07 GMT 57.764530 37.846619 37,000 111 473 0
2020-06-15 15:34:56 GMT 57.773094 37.806793 37,000 111 473 0
2020-06-15 15:34:46 GMT 57.781174 37.768871 37,000 111 473 0
2020-06-15 15:34:36 GMT 57.797585 37.691254 37,000 111 474 0
2020-06-15 15:34:26 GMT 57.797585 37.691254 37,000 111 474 0
2020-06-15 15:34:16 GMT 57.806007 37.651337 37,000 111 474 0
2020-06-15 15:34:05 GMT 57.814178 37.612492 37,000 111 473 0
2020-06-15 15:33:56 GMT 57.822395 37.573151 37,000 111 474 0
2020-06-15 15:33:45 GMT 57.830521 37.534260 37,000 111 474 0
2020-06-15 15:33:38 GMT 57.837250 37.501743 37,000 111 474 0
2020-06-15 15:33:35 GMT 57.838596 37.495239 37,000 111 474 0
2020-06-15 15:33:24 GMT 57.847115 37.454315 37,000 111 474 0
2020-06-15 15:33:15 GMT 57.854919 37.416862 37,000 111 474 0
2020-06-15 15:33:04 GMT 57.873463 37.328156 37,000 111 474 0
2020-06-15 15:32:53 GMT 57.873463 37.328156 37,000 111 474 0
2020-06-15 15:32:43 GMT 57.879608 37.298676 37,000 111 474 0
2020-06-15 15:32:40 GMT 57.882866 37.282928 37,000 111 474 0
2020-06-15 15:32:34 GMT 57.887661 37.259949 37,000 111 474 0
2020-06-15 15:32:30 GMT 57.890854 37.244629 37,000 111 475 0
2020-06-15 15:32:23 GMT 57.896042 37.219757 37,000 111 475 0
2020-06-15 15:32:19 GMT 57.899902 37.200989 37,000 111 475 0
2020-06-15 15:32:12 GMT 57.904449 37.179062 37,000 111 475 0
2020-06-15 15:32:08 GMT 57.908890 37.157623 37,000 111 476 0
2020-06-15 15:32:02 GMT 57.912277 37.141052 37,000 111 475 0
2020-06-15 15:31:58 GMT 57.917408 37.116119 37,000 111 476 0
2020-06-15 15:31:52 GMT 57.920242 37.102249 37,000 111 476 0
2020-06-15 15:31:42 GMT 57.928486 37.062286 37,000 111 475 0
2020-06-15 15:31:32 GMT 57.936401 37.023838 37,000 111 475 0
2020-06-15 15:31:22 GMT 57.944595 36.983917 37,000 111 474 0
2020-06-15 15:31:11 GMT 57.952694 36.944366 37,000 110 474 0
2020-06-15 15:31:00 GMT 57.961262 36.902527 37,000 111 473 -64
2020-06-15 15:30:50 GMT 57.968903 36.864979 37,000 110 473 64
2020-06-15 15:30:41 GMT 57.976528 36.827362 37,000 110 472 0
2020-06-15 15:30:30 GMT 57.984650 36.787102 37,000 110 472 0
2020-06-15 15:30:19 GMT 57.992889 36.746078 37,000 110 472 0
2020-06-15 15:30:10 GMT 58.000317 36.709259 37,000 110 472 0
2020-06-15 15:30:00 GMT 58.008499 36.668640 37,000 110 471 0
2020-06-15 15:29:49 GMT 58.016281 36.629925 37,000 110 471 0
2020-06-15 15:29:37 GMT 58.026718 36.577385 37,000 110 470 64
2020-06-15 15:29:28 GMT 58.032074 36.550629 37,000 110 470 0
2020-06-15 15:29:24 GMT 58.036789 36.526794 37,000 110 470 0
2020-06-15 15:29:21 GMT 58.037842 36.521477 37,000 110 470 0
2020-06-15 15:29:18 GMT 58.040588 36.507656 37,000 110 470 0
2020-06-15 15:29:12 GMT 58.045258 36.484268 37,000 110 470 0
2020-06-15 15:29:06 GMT 58.048965 36.465546 37,000 110 469 -64
2020-06-15 15:29:01 GMT 58.053993 36.440277 37,000 110 469 0
2020-06-15 15:28:56 GMT 58.056644 36.426819 37,000 110 469 0
2020-06-15 15:28:47 GMT 58.063583 36.391663 37,000 110 469 64
2020-06-15 15:28:38 GMT 58.070751 36.355225 37,000 110 469 0
2020-06-15 15:28:29 GMT 58.078060 36.318146 37,000 110 468 0
2020-06-15 15:28:26 GMT 58.079781 36.309357 37,000 110 468 0
2020-06-15 15:28:17 GMT 58.086346 36.276123 37,000 110 468 0
2020-06-15 15:28:14 GMT 58.088745 36.263920 37,000 110 468 0
2020-06-15 15:28:03 GMT 58.099522 36.209290 37,000 110 467 0
2020-06-15 15:27:57 GMT 58.101700 36.198177 37,000 110 467 0
2020-06-15 15:27:46 GMT 58.109573 36.158131 37,000 110 466 0
2020-06-15 15:27:36 GMT 58.116943 36.120300 37,000 110 466 0
2020-06-15 15:27:25 GMT 58.125000 36.079102 37,000 110 466 0
2020-06-15 15:27:15 GMT 58.132481 36.040924 37,000 110 466 0
2020-06-15 15:27:07 GMT 58.140301 36.000824 37,000 110 466 0
2020-06-15 15:26:55 GMT 58.147568 35.963390 37,000 110 466 0
2020-06-15 15:26:44 GMT 58.155350 35.923344 37,000 110 466 0
2020-06-15 15:26:36 GMT 58.161118 35.893574 37,000 110 466 0
2020-06-15 15:26:32 GMT 58.164688 35.875233 37,000 110 466 0
2020-06-15 15:26:23 GMT 58.170731 35.843960 37,000 110 465 0
2020-06-15 15:26:16 GMT 58.176613 35.813416 37,000 110 465 0
2020-06-15 15:26:13 GMT 58.178055 35.806213 37,000 110 465 0
2020-06-15 15:26:04 GMT 58.185410 35.768097 37,000 110 465 0
2020-06-15 15:25:52 GMT 58.193710 35.725323 37,000 110 465 0
2020-06-15 15:25:42 GMT 58.201080 35.686871 37,000 109 464 0
2020-06-15 15:25:32 GMT 58.208080 35.650177 37,000 109 464 0
2020-06-15 15:25:26 GMT 58.213295 35.622711 37,000 109 464 0
2020-06-15 15:25:22 GMT 58.216274 35.607056 37,000 109 464 0
2020-06-15 15:25:11 GMT 58.223721 35.567780 37,000 109 464 0
2020-06-15 15:25:01 GMT 58.231476 35.526508 37,000 109 463 0
2020-06-15 15:24:50 GMT 58.239761 35.482208 37,000 109 463 -64
2020-06-15 15:24:39 GMT 58.248459 35.435604 37,000 109 463 0
2020-06-15 15:24:28 GMT 58.254353 35.403900 37,000 109 464 64
2020-06-15 15:24:20 GMT 58.260452 35.371399 37,000 109 464 0
2020-06-15 15:24:08 GMT 58.268505 35.329010 37,000 109 464 0
2020-06-15 15:24:01 GMT 58.274368 35.298008 37,000 109 464 0
2020-06-15 15:23:49 GMT 58.282284 35.255951 37,000 109 464 0
2020-06-15 15:23:40 GMT 58.289337 35.218449 37,000 109 464 0
2020-06-15 15:23:30 GMT 58.296577 35.180145 37,000 109 464 64
2020-06-15 15:23:18 GMT 58.305267 35.133835 37,000 109 464 0
2020-06-15 15:23:15 GMT 58.308449 35.116974 37,000 109 464 0
2020-06-15 15:23:09 GMT 58.311192 35.101959 37,000 109 464 0
2020-06-15 15:23:03 GMT 58.316174 35.075134 37,000 109 464 0
2020-06-15 15:22:57 GMT 58.320007 35.054806 37,000 111 464 0
2020-06-15 15:22:51 GMT 58.325809 35.027252 37,000 113 463 0
2020-06-15 15:22:48 GMT 58.327625 35.019379 37,000 116 462 0
2020-06-15 15:22:40 GMT 58.334381 34.991810 37,000 116 462 0
2020-06-15 15:22:30 GMT 58.344757 34.954468 37,000 120 462 0
2020-06-15 15:22:16 GMT 58.362030 34.902325 37,000 124 461 64
2020-06-15 15:22:07 GMT 58.375900 34.864471 37,000 125 461 0
2020-06-15 15:22:00 GMT 58.380650 34.851562 37,000 125 461 0
2020-06-15 15:21:49 GMT 58.392609 34.819130 37,000 125 461 0
2020-06-15 15:21:46 GMT 58.396637 34.808144 37,000 124 461 64
2020-06-15 15:21:39 GMT 58.405197 34.784931 37,000 124 461 0
2020-06-15 15:21:29 GMT 58.417847 34.750397 37,000 124 461 0
2020-06-15 15:21:13 GMT 58.438652 34.693634 37,000 124 461 0
2020-06-15 15:21:06 GMT 58.447678 34.669041 37,000 124 461 0
2020-06-15 15:20:59 GMT 58.455231 34.648487 37,000 125 460 0
2020-06-15 15:20:53 GMT 58.461914 34.630234 37,000 124 461 0
2020-06-15 15:20:48 GMT 58.467377 34.615265 37,000 124 461 0
2020-06-15 15:20:43 GMT 58.474686 34.595325 37,000 124 460 0
2020-06-15 15:20:38 GMT 58.479527 34.581940 37,000 124 460 64
2020-06-15 15:20:31 GMT 58.489536 34.554291 37,000 124 460 64
2020-06-15 15:20:28 GMT 58.492096 34.547241 37,000 124 461 0
2020-06-15 15:20:18 GMT 58.503922 34.514465 37,000 124 461 -64
2020-06-15 15:20:07 GMT 58.516674 34.479034 37,000 124 461 0
2020-06-15 15:20:01 GMT 58.523575 34.459946 37,000 124 459 0
2020-06-15 15:19:58 GMT 58.528748 34.445595 37,000 124 461 0
2020-06-15 15:19:47 GMT 58.541428 34.410419 37,000 124 461 0
2020-06-15 15:19:40 GMT 58.549576 34.387650 37,000 124 461 0
2020-06-15 15:19:37 GMT 58.552986 34.378235 37,000 124 461 0
2020-06-15 15:19:30 GMT 58.561249 34.355133 37,000 124 460 0
2020-06-15 15:19:26 GMT 58.565601 34.343079 37,000 124 460 0
2020-06-15 15:19:23 GMT 58.570023 34.330719 37,000 124 460 0
2020-06-15 15:19:17 GMT 58.577473 34.309937 37,000 124 460 0
2020-06-15 15:19:13 GMT 58.581299 34.299137 37,000 124 460 0
2020-06-15 15:19:06 GMT 58.589577 34.276062 37,000 124 460 0
2020-06-15 15:19:03 GMT 58.593887 34.263966 37,000 124 459 0
2020-06-15 15:18:56 GMT 58.601761 34.241814 37,000 124 459 0
2020-06-15 15:18:53 GMT 58.605698 34.230740 37,000 124 459 0
2020-06-15 15:18:46 GMT 58.614304 34.206642 37,000 124 459 -64
2020-06-15 15:18:43 GMT 58.618011 34.196186 37,000 124 459 -64
2020-06-15 15:18:36 GMT 58.626114 34.173416 37,000 124 459 0
2020-06-15 15:18:31 GMT 58.632076 34.156677 37,000 124 459 0
2020-06-15 15:18:26 GMT 58.638382 34.138950 37,000 124 459 0
2020-06-15 15:18:21 GMT 58.643738 34.123890 37,000 124 459 0
2020-06-15 15:18:15 GMT 58.650650 34.104397 37,000 124 458 0
2020-06-15 15:18:06 GMT 58.662689 34.070641 37,000 124 458 0
2020-06-15 15:18:01 GMT 58.667816 34.056198 37,000 124 457 0
2020-06-15 15:17:55 GMT 58.674580 34.037109 37,000 124 457 0
2020-06-15 15:17:49 GMT 58.682076 34.016052 37,000 124 457 0
2020-06-15 15:17:45 GMT 58.686684 34.002960 37,000 124 457 0
2020-06-15 15:17:41 GMT 58.692032 33.987888 37,000 124 457 0
2020-06-15 15:17:34 GMT 58.699493 33.966713 37,000 124 457 0
2020-06-15 15:17:30 GMT 58.704792 33.951599 37,000 124 457 0
2020-06-15 15:17:25 GMT 58.710842 33.934479 37,000 124 457 0
2020-06-15 15:17:15 GMT 58.722656 33.900974 37,000 124 457 64
2020-06-15 15:17:10 GMT 58.727837 33.886139 37,000 124 456 0
2020-06-15 15:17:05 GMT 58.734913 33.865997 37,000 124 456 0
2020-06-15 15:16:58 GMT 58.742798 33.843559 37,000 124 456 0
2020-06-15 15:16:54 GMT 58.747063 33.831482 37,000 124 455 0
2020-06-15 15:16:47 GMT 58.754700 33.809715 37,000 124 455 0
2020-06-15 15:16:44 GMT 58.758934 33.797607 37,000 124 455 0
2020-06-15 15:16:39 GMT 58.764130 33.782784 37,000 124 455 0
2020-06-15 15:16:33 GMT 58.771271 33.762360 37,000 124 455 0
2020-06-15 15:16:28 GMT 58.777180 33.745514 37,000 124 455 0
2020-06-15 15:16:24 GMT 58.782578 33.730064 37,000 123 455 -64
2020-06-15 15:16:18 GMT 58.788773 33.712280 37,000 123 455 0
2020-06-15 15:16:13 GMT 58.794388 33.696220 37,000 123 455 0
2020-06-15 15:16:04 GMT 58.806370 33.661926 37,000 123 455 0
2020-06-15 15:15:53 GMT 58.818378 33.627411 37,000 123 454 0
2020-06-15 15:15:43 GMT 58.830391 33.592896 36,950 123 454 576
2020-06-15 15:15:32 GMT 58.842545 33.558006 36,825 123 454 704
2020-06-15 15:15:22 GMT 58.854923 33.522320 36,700 123 456 704
2020-06-15 15:15:12 GMT 58.866001 33.490307 36,575 123 458 768
2020-06-15 15:15:03 GMT 58.878338 33.454697 36,425 123 459 960
2020-06-15 15:14:52 GMT 58.890106 33.420685 36,275 123 459 896
2020-06-15 15:14:42 GMT 58.902100 33.385986 36,125 123 459 960
2020-06-15 15:14:31 GMT 58.914001 33.351562 35,950 123 460 1024
2020-06-15 15:14:21 GMT 58.925732 33.317459 35,750 123 459 1408
2020-06-15 15:14:12 GMT 58.937897 33.281891 35,500 123 460 1536
2020-06-15 15:14:01 GMT 58.949890 33.246902 35,250 123 461 1472
2020-06-15 15:13:51 GMT 58.961529 33.212902 34,975 123 462 1536
2020-06-15 15:13:40 GMT 58.973866 33.176723 34,725 123 463 1536
2020-06-15 15:13:30 GMT 58.985737 33.141869 34,450 123 463 1536
2020-06-15 15:13:20 GMT 58.997635 33.106934 34,200 123 464 1600
2020-06-15 15:13:11 GMT 59.009525 33.071877 33,925 123 465 1664
2020-06-15 15:13:00 GMT 59.021675 33.035984 33,650 123 465 1472
2020-06-15 15:12:50 GMT 59.033360 33.001511 33,400 123 466 1536
2020-06-15 15:12:40 GMT 59.045425 32.965942 33,150 123 466 1536
2020-06-15 15:12:29 GMT 59.057892 32.928867 32,875 123 466 1536
2020-06-15 15:12:20 GMT 59.069763 32.893539 32,600 123 466 1600
2020-06-15 15:12:07 GMT 59.083866 32.851490 32,250 123 467 1728
2020-06-15 15:11:59 GMT 59.093811 32.822113 32,050 123 467 1600
2020-06-15 15:11:51 GMT 59.102737 32.795471 31,825 123 468 1728
2020-06-15 15:11:48 GMT 59.105793 32.786327 31,775 123 468 1728
2020-06-15 15:11:39 GMT 59.117477 32.751572 31,475 123 468 1792
2020-06-15 15:11:31 GMT 59.129745 32.714905 31,150 123 469 1856
2020-06-15 15:11:19 GMT 59.141464 32.680023 30,875 123 469 1344
2020-06-15 15:11:08 GMT 59.153961 32.642761 30,650 123 466 1216
2020-06-15 15:10:58 GMT 59.165287 32.608654 30,425 122 464 1472
2020-06-15 15:10:47 GMT 59.177765 32.571167 30,225 123 462 1216
2020-06-15 15:10:38 GMT 59.189026 32.537384 30,000 122 461 1344
2020-06-15 15:10:28 GMT 59.200928 32.501587 29,750 122 459 1472
2020-06-15 15:10:17 GMT 59.213097 32.464886 29,500 122 458 1472
2020-06-15 15:10:07 GMT 59.224407 32.430695 29,250 122 455 1536
2020-06-15 15:09:57 GMT 59.235909 32.395935 29,000 122 454 1536
2020-06-15 15:09:49 GMT 59.244690 32.369476 28,800 122 452 1536
2020-06-15 15:09:46 GMT 59.247482 32.360870 28,750 122 452 1536
2020-06-15 15:09:38 GMT 59.256866 32.332489 28,425 122 450 1600
2020-06-15 15:09:35 GMT 59.260674 32.320927 28,425 122 450 1600
2020-06-15 15:09:29 GMT 59.267097 32.301414 28,275 122 449 1600
2020-06-15 15:09:23 GMT 59.275475 32.275936 28,075 122 447 1600
2020-06-15 15:09:16 GMT 59.281387 32.257942 27,950 122 446 1600
2020-06-15 15:09:06 GMT 59.292664 32.223358 27,625 122 446 1792
2020-06-15 15:08:58 GMT 59.301079 32.197613 27,400 122 444 1920
2020-06-15 15:08:55 GMT 59.304382 32.187469 27,300 122 444 1984
2020-06-15 15:08:46 GMT 59.315277 32.154053 27,000 122 443 1792
2020-06-15 15:08:38 GMT 59.323654 32.128418 26,750 122 442 1920
2020-06-15 15:08:34 GMT 59.327614 32.116352 26,650 122 442 1920
2020-06-15 15:08:28 GMT 59.334732 32.094543 26,450 122 441 1792
2020-06-15 15:08:24 GMT 59.339996 32.078430 26,300 122 440 1920
2020-06-15 15:08:15 GMT 59.348923 32.050964 26,050 122 438 1600
2020-06-15 15:08:05 GMT 59.360016 32.016907 25,775 122 436 1792
2020-06-15 15:07:55 GMT 59.370758 31.983765 25,475 122 433 1920
2020-06-15 15:07:47 GMT 59.378723 31.959320 25,250 122 432 1792
2020-06-15 15:07:44 GMT 59.381893 31.949379 25,150 122 431 1856
2020-06-15 15:07:35 GMT 59.392464 31.916893 24,825 122 429 1728
2020-06-15 15:07:27 GMT 59.400421 31.892303 24,600 122 427 1920
2020-06-15 15:07:24 GMT 59.403587 31.882515 24,500 122 426 1920
2020-06-15 15:07:17 GMT 59.411179 31.859070 24,300 122 423 1792
2020-06-15 15:07:14 GMT 59.414017 31.850311 24,200 122 423 1920
2020-06-15 15:07:04 GMT 59.424637 31.817413 23,875 122 420 1920
2020-06-15 15:06:56 GMT 59.432327 31.793701 23,650 122 418 1664
2020-06-15 15:06:53 GMT 59.435303 31.784363 23,575 122 416 1792
2020-06-15 15:06:46 GMT 59.442673 31.761475 23,350 122 414 1984
2020-06-15 15:06:43 GMT 59.445648 31.752228 23,250 122 413 1920
2020-06-15 15:06:34 GMT 59.455902 31.720276 22,925 122 409 1984
2020-06-15 15:06:26 GMT 59.463547 31.696409 22,700 122 406 1600
2020-06-15 15:06:23 GMT 59.466339 31.687696 22,600 122 406 1600
2020-06-15 15:06:13 GMT 59.476273 31.656738 22,350 122 400 1728
2020-06-15 15:06:03 GMT 59.486160 31.625793 22,025 122 396 2304
2020-06-15 15:05:55 GMT 59.493946 31.601416 21,700 122 394 2304
2020-06-15 15:05:52 GMT 59.505981 31.563629 21,500 122 393 2304
2020-06-15 15:05:42 GMT 59.505981 31.563629 21,225 122 391 2304
2020-06-15 15:05:35 GMT 59.513126 31.541084 20,925 121 389 2496
2020-06-15 15:05:32 GMT 59.515549 31.533508 20,825 121 389 2624
2020-06-15 15:05:25 GMT 59.522297 31.512293 20,525 121 387 2432
2020-06-15 15:05:20 GMT 59.527496 31.495880 20,300 122 385 2688
2020-06-15 15:05:15 GMT 59.532307 31.480659 20,075 121 385 2688
2020-06-15 15:05:12 GMT 59.535053 31.472042 19,800 121 379 2752
2020-06-15 15:05:05 GMT 59.541615 31.451300 19,625 121 383 2752
2020-06-15 15:05:01 GMT 59.544800 31.441223 19,450 121 383 2880
2020-06-15 15:04:51 GMT 59.554047 31.412018 18,975 121 382 2816
2020-06-15 15:04:44 GMT 59.560593 31.391418 18,650 121 381 2688
2020-06-15 15:04:41 GMT 59.564938 31.377522 18,450 121 379 2816
2020-06-15 15:04:34 GMT 59.570011 31.361422 18,200 121 379 2816
2020-06-15 15:04:24 GMT 59.579681 31.330719 17,725 121 376 2624
2020-06-15 15:04:14 GMT 59.588821 31.301754 17,300 121 372 2496
2020-06-15 15:04:04 GMT 59.597759 31.273247 16,850 121 369 2816
2020-06-15 15:03:53 GMT 59.607117 31.243319 16,350 121 366 2880
2020-06-15 15:03:43 GMT 59.616302 31.213806 15,850 121 364 2944
2020-06-15 15:03:33 GMT 59.624680 31.186981 15,400 121 361 2880
2020-06-15 15:03:23 GMT 59.633652 31.158234 14,900 121 358 2880
2020-06-15 15:03:13 GMT 59.642681 31.129477 14,375 121 355 3200
2020-06-15 15:03:02 GMT 59.651524 31.101349 13,825 121 353 3136
2020-06-15 15:02:53 GMT 59.660046 31.074356 13,350 122 349 2560
2020-06-15 15:02:42 GMT 59.668701 31.047270 12,925 122 345 2880
2020-06-15 15:02:32 GMT 59.677643 31.019329 12,375 122 343 3200
2020-06-15 15:02:22 GMT 59.685883 30.993347 11,925 122 339 2368
2020-06-15 15:02:11 GMT 59.694992 30.964325 11,500 121 333 2368
2020-06-15 15:02:01 GMT 59.702637 30.939972 11,200 120 323 1408
2020-06-15 15:01:51 GMT 59.710190 30.912415 10,950 114 313 1536
2020-06-15 15:01:40 GMT 59.716049 30.882843 10,675 107 303 1536
2020-06-15 15:01:30 GMT 59.719585 30.858795 10,300 106 297 3008
2020-06-15 15:01:19 GMT 59.723869 30.829531 9,750 105 297 2816
2020-06-15 15:01:10 GMT 59.727356 30.805115 9,300 105 294 3008
2020-06-15 15:01:00 GMT 59.731201 30.778473 8,775 105 293 2944
2020-06-15 15:00:50 GMT 59.734528 30.755089 8,350 105 289 2560
2020-06-15 15:00:40 GMT 59.738342 30.728210 7,825 105 287 3520
2020-06-15 15:00:30 GMT 59.742096 30.701752 7,225 105 290 3328
2020-06-15 15:00:20 GMT 59.745621 30.676392 6,725 105 290 3008
2020-06-15 15:00:10 GMT 59.749241 30.650814 6,275 106 275 2432
2020-06-15 14:59:57 GMT 59.753860 30.618439 5,925 106 275 2432
2020-06-15 14:59:49 GMT 59.756470 30.600861 5,625 106 272 2560
2020-06-15 14:59:39 GMT 59.760319 30.575142 5,225 106 265 1920
2020-06-15 14:59:28 GMT 59.764160 30.549683 4,825 106 260 2624
2020-06-15 14:59:17 GMT 59.767868 30.525146 4,525 106 249 1216

Making use of Plane Finder data

You are free to use the raw flight data, aircraft information and images provided in this report for your own purposes provided the data is correctly attributed to Plane Finder. We ask that you please credit Plane Finder and link to planefinder.net in close proximity to the content.

Optionally one of the following logos (no smaller then 150x24px) can be used and must link to planefinder.net

Embedding the Plane Finder map

You are welcome to embed the Plane Finder playback map on your website to offer visitors a more interactive experience. We suggest using the following HTML code:

<iframe src="//planefinder.net/data/report/DP547-VP-BQQ-7700-squawk-2020-06-15/map" width="800" height="600" seamless="seamless"></iframe>

Where our data comes from

Plane Finder has a global network of data feeds and antenna radars that receive data broadcast directly from aircraft. The primary technologies used are ADS-B and MLAT. We also show feeds from the FAA and a FLARM glider feed.

Click here to find out more about the Plane Finder network.

How we collect our data